sensor_id;sensor_type;location;lat;lon;timestamp;pressure;altitude;pressure_sealevel;temperature;humidity
40982;BME280;26708;50.304;19.028;2022-08-21T00:00:19;97935.97;;;23.83;76.92
40982;BME280;26708;50.304;19.028;2022-08-21T00:03:21;97928.06;;;23.81;76.73
40982;BME280;26708;50.304;19.028;2022-08-21T00:06:22;97930.44;;;23.87;77.39
40982;BME280;26708;50.304;19.028;2022-08-21T00:09:26;97910.53;;;23.77;77.49
40982;BME280;26708;50.304;19.028;2022-08-21T00:12:27;97910.00;;;23.88;77.26
40982;BME280;26708;50.304;19.028;2022-08-21T00:15:30;97920.56;;;23.89;77.04
40982;BME280;26708;50.304;19.028;2022-08-21T00:18:32;97919.69;;;23.88;77.26
40982;BME280;26708;50.304;19.028;2022-08-21T00:21:34;97931.03;;;23.92;76.84
40982;BME280;26708;50.304;19.028;2022-08-21T00:24:35;97925.94;;;23.88;77.00
40982;BME280;26708;50.304;19.028;2022-08-21T00:27:36;97924.88;;;23.92;77.14
40982;BME280;26708;50.304;19.028;2022-08-21T00:30:38;97923.06;;;23.92;77.01
40982;BME280;26708;50.304;19.028;2022-08-21T00:33:40;97914.13;;;23.93;77.13
40982;BME280;26708;50.304;19.028;2022-08-21T00:36:42;97917.59;;;23.95;76.96
40982;BME280;26708;50.304;19.028;2022-08-21T00:39:43;97913.03;;;23.97;76.72
40982;BME280;26708;50.304;19.028;2022-08-21T00:42:44;97902.72;;;23.91;77.04
40982;BME280;26708;50.304;19.028;2022-08-21T00:45:45;97895.69;;;23.90;76.97
40982;BME280;26708;50.304;19.028;2022-08-21T00:48:46;97899.81;;;23.95;76.94
40982;BME280;26708;50.304;19.028;2022-08-21T00:51:58;97896.06;;;23.99;77.00
40982;BME280;26708;50.304;19.028;2022-08-21T00:55:00;97875.34;;;23.89;76.86
40982;BME280;26708;50.304;19.028;2022-08-21T00:58:03;97888.91;;;24.00;76.85
40982;BME280;26708;50.304;19.028;2022-08-21T01:01:07;97883.78;;;23.97;76.92
40982;BME280;26708;50.304;19.028;2022-08-21T01:04:08;97879.28;;;23.97;76.84
40982;BME280;26708;50.304;19.028;2022-08-21T01:07:09;97872.63;;;23.91;76.78
40982;BME280;26708;50.304;19.028;2022-08-21T01:10:10;97871.50;;;23.94;77.16
40982;BME280;26708;50.304;19.028;2022-08-21T01:13:16;97865.28;;;23.94;77.04
40982;BME280;26708;50.304;19.028;2022-08-21T01:16:20;97867.88;;;23.95;77.35
40982;BME280;26708;50.304;19.028;2022-08-21T01:19:22;97844.25;;;23.89;77.43
40982;BME280;26708;50.304;19.028;2022-08-21T01:22:23;97859.91;;;23.95;77.16
40982;BME280;26708;50.304;19.028;2022-08-21T01:25:24;97845.31;;;23.87;77.33
40982;BME280;26708;50.304;19.028;2022-08-21T01:28:26;97844.44;;;23.87;77.40
40982;BME280;26708;50.304;19.028;2022-08-21T01:31:31;97852.09;;;23.92;77.39
40982;BME280;26708;50.304;19.028;2022-08-21T01:34:36;97848.50;;;23.93;77.53
40982;BME280;26708;50.304;19.028;2022-08-21T01:37:39;97836.97;;;23.93;77.87
40982;BME280;26708;50.304;19.028;2022-08-21T01:40:41;97819.84;;;23.81;77.76
40982;BME280;26708;50.304;19.028;2022-08-21T01:43:43;97817.84;;;23.87;77.84
40982;BME280;26708;50.304;19.028;2022-08-21T01:46:44;97815.00;;;23.89;77.55
40982;BME280;26708;50.304;19.028;2022-08-21T01:49:46;97821.88;;;23.93;77.01
40982;BME280;26708;50.304;19.028;2022-08-21T01:52:47;97820.31;;;23.89;77.03
40982;BME280;26708;50.304;19.028;2022-08-21T01:55:48;97804.59;;;23.85;77.14
40982;BME280;26708;50.304;19.028;2022-08-21T01:58:49;97804.38;;;23.89;77.31
40982;BME280;26708;50.304;19.028;2022-08-21T02:01:51;97787.94;;;23.81;77.51
40982;BME280;26708;50.304;19.028;2022-08-21T02:04:52;97799.16;;;23.88;77.68
40982;BME280;26708;50.304;19.028;2022-08-21T02:07:55;97779.94;;;23.81;77.62
40982;BME280;26708;50.304;19.028;2022-08-21T02:10:56;97796.31;;;23.91;77.64
40982;BME280;26708;50.304;19.028;2022-08-21T02:13:57;97785.84;;;23.88;77.57
40982;BME280;26708;50.304;19.028;2022-08-21T02:16:59;97795.38;;;23.92;77.50
40982;BME280;26708;50.304;19.028;2022-08-21T02:20:00;97784.91;;;23.89;77.54
40982;BME280;26708;50.304;19.028;2022-08-21T02:23:01;97765.91;;;23.79;77.58
40982;BME280;26708;50.304;19.028;2022-08-21T02:26:05;97789.34;;;23.88;77.74
40982;BME280;26708;50.304;19.028;2022-08-21T02:29:07;97784.22;;;23.86;77.73
40982;BME280;26708;50.304;19.028;2022-08-21T02:32:08;97784.38;;;23.83;77.68
40982;BME280;26708;50.304;19.028;2022-08-21T02:35:10;97793.03;;;23.86;78.07
40982;BME280;26708;50.304;19.028;2022-08-21T02:38:22;97779.38;;;23.77;77.87
40982;BME280;26708;50.304;19.028;2022-08-21T02:41:23;97773.44;;;23.72;78.11
40982;BME280;26708;50.304;19.028;2022-08-21T02:44:27;97769.81;;;23.73;78.10
40982;BME280;26708;50.304;19.028;2022-08-21T02:47:31;97768.97;;;23.72;77.93
40982;BME280;26708;50.304;19.028;2022-08-21T02:50:38;97783.44;;;23.67;78.36
40982;BME280;26708;50.304;19.028;2022-08-21T02:53:41;97770.13;;;23.51;78.50
40982;BME280;26708;50.304;19.028;2022-08-21T02:56:42;97786.84;;;23.53;79.04
40982;BME280;26708;50.304;19.028;2022-08-21T02:59:42;97790.22;;;23.57;79.17
40982;BME280;26708;50.304;19.028;2022-08-21T03:02:43;97796.47;;;23.56;79.37
40982;BME280;26708;50.304;19.028;2022-08-21T03:05:50;97788.56;;;23.54;78.94
40982;BME280;26708;50.304;19.028;2022-08-21T03:08:54;97798.13;;;23.58;78.91
40982;BME280;26708;50.304;19.028;2022-08-21T03:11:55;97802.50;;;23.59;79.27
40982;BME280;26708;50.304;19.028;2022-08-21T03:14:59;97804.38;;;23.57;79.33
40982;BME280;26708;50.304;19.028;2022-08-21T03:18:01;97787.81;;;23.52;79.19
40982;BME280;26708;50.304;19.028;2022-08-21T03:21:02;97793.75;;;23.57;79.12
40982;BME280;26708;50.304;19.028;2022-08-21T03:24:03;97796.03;;;23.63;79.25
40982;BME280;26708;50.304;19.028;2022-08-21T03:27:06;97804.66;;;23.68;78.86
40982;BME280;26708;50.304;19.028;2022-08-21T03:30:08;97797.78;;;23.64;78.43
40982;BME280;26708;50.304;19.028;2022-08-21T03:33:10;97811.69;;;23.69;78.56
40982;BME280;26708;50.304;19.028;2022-08-21T03:36:11;97816.47;;;23.63;78.51
40982;BME280;26708;50.304;19.028;2022-08-21T03:39:13;97823.50;;;23.64;78.82
40982;BME280;26708;50.304;19.028;2022-08-21T03:42:14;97831.22;;;23.68;78.79
40982;BME280;26708;50.304;19.028;2022-08-21T03:45:17;97811.94;;;23.65;78.68
40982;BME280;26708;50.304;19.028;2022-08-21T03:48:19;97820.59;;;23.68;78.77
40982;BME280;26708;50.304;19.028;2022-08-21T03:51:20;97819.66;;;23.69;78.78
40982;BME280;26708;50.304;19.028;2022-08-21T03:54:21;97834.03;;;23.82;78.67
40982;BME280;26708;50.304;19.028;2022-08-21T03:57:22;97834.78;;;23.84;78.57
40982;BME280;26708;50.304;19.028;2022-08-21T04:00:24;97835.59;;;23.86;78.19
40982;BME280;26708;50.304;19.028;2022-08-21T04:03:26;97829.44;;;23.86;78.02
40982;BME280;26708;50.304;19.028;2022-08-21T04:06:27;97830.81;;;23.92;78.16
40982;BME280;26708;50.304;19.028;2022-08-21T04:09:28;97836.84;;;23.96;78.11
40982;BME280;26708;50.304;19.028;2022-08-21T04:12:30;97818.53;;;23.90;77.85
40982;BME280;26708;50.304;19.028;2022-08-21T04:15:32;97826.97;;;23.98;77.93
40982;BME280;26708;50.304;19.028;2022-08-21T04:18:33;97821.63;;;23.98;77.67
40982;BME280;26708;50.304;19.028;2022-08-21T04:21:35;97820.63;;;24.00;77.45
40982;BME280;26708;50.304;19.028;2022-08-21T04:24:38;97816.31;;;23.98;77.56
40982;BME280;26708;50.304;19.028;2022-08-21T04:27:39;97821.47;;;24.01;77.70
40982;BME280;26708;50.304;19.028;2022-08-21T04:30:41;97820.53;;;24.02;77.55
40982;BME280;26708;50.304;19.028;2022-08-21T04:33:41;97823.03;;;24.05;77.57
40982;BME280;26708;50.304;19.028;2022-08-21T04:36:42;97824.72;;;24.06;77.81
40982;BME280;26708;50.304;19.028;2022-08-21T04:39:43;97808.53;;;23.95;77.71
40982;BME280;26708;50.304;19.028;2022-08-21T04:42:46;97817.09;;;24.00;77.52
40982;BME280;26708;50.304;19.028;2022-08-21T04:45:50;97829.97;;;24.07;77.46
40982;BME280;26708;50.304;19.028;2022-08-21T04:48:51;97826.53;;;24.05;77.28
40982;BME280;26708;50.304;19.028;2022-08-21T04:51:52;97827.72;;;24.00;77.37
40982;BME280;26708;50.304;19.028;2022-08-21T04:54:53;97799.03;;;23.89;77.53
40982;BME280;26708;50.304;19.028;2022-08-21T04:57:55;97825.94;;;24.00;77.62
40982;BME280;26708;50.304;19.028;2022-08-21T05:00:57;97835.38;;;24.06;77.72
40982;BME280;26708;50.304;19.028;2022-08-21T05:03:59;97824.13;;;24.01;77.60
40982;BME280;26708;50.304;19.028;2022-08-21T05:07:03;97832.72;;;24.06;77.56
40982;BME280;26708;50.304;19.028;2022-08-21T05:10:06;97822.66;;;23.95;77.68
40982;BME280;26708;50.304;19.028;2022-08-21T05:13:08;97822.97;;;23.89;77.88
40982;BME280;26708;50.304;19.028;2022-08-21T05:16:10;97848.69;;;24.06;78.24
40982;BME280;26708;50.304;19.028;2022-08-21T05:19:11;97848.75;;;24.04;78.03
40982;BME280;26708;50.304;19.028;2022-08-21T05:22:19;97856.59;;;24.07;78.02
40982;BME280;26708;50.304;19.028;2022-08-21T05:25:19;97872.22;;;24.13;77.85
40982;BME280;26708;50.304;19.028;2022-08-21T05:28:21;97877.56;;;24.13;77.43
40982;BME280;26708;50.304;19.028;2022-08-21T05:31:21;97872.88;;;24.17;77.63
40982;BME280;26708;50.304;19.028;2022-08-21T05:34:23;97881.94;;;24.14;77.66
40982;BME280;26708;50.304;19.028;2022-08-21T05:37:24;97875.72;;;24.14;77.64
40982;BME280;26708;50.304;19.028;2022-08-21T05:40:25;97885.09;;;24.21;77.31
40982;BME280;26708;50.304;19.028;2022-08-21T05:43:26;97865.84;;;24.16;77.48
40982;BME280;26708;50.304;19.028;2022-08-21T05:46:27;97859.94;;;24.11;77.83
40982;BME280;26708;50.304;19.028;2022-08-21T05:49:27;97873.84;;;24.16;77.82
40982;BME280;26708;50.304;19.028;2022-08-21T05:52:28;97856.34;;;24.12;77.78
40982;BME280;26708;50.304;19.028;2022-08-21T05:55:29;97863.81;;;24.21;77.54
40982;BME280;26708;50.304;19.028;2022-08-21T05:58:31;97865.59;;;24.20;77.52
40982;BME280;26708;50.304;19.028;2022-08-21T06:01:33;97862.94;;;24.20;77.81
40982;BME280;26708;50.304;19.028;2022-08-21T06:04:38;97873.50;;;24.22;77.72
40982;BME280;26708;50.304;19.028;2022-08-21T06:07:39;97874.19;;;24.25;77.43
40982;BME280;26708;50.304;19.028;2022-08-21T06:10:39;97864.56;;;24.23;77.81
40982;BME280;26708;50.304;19.028;2022-08-21T06:13:40;97870.50;;;24.28;77.62
40982;BME280;26708;50.304;19.028;2022-08-21T06:16:42;97861.84;;;24.24;77.38
40982;BME280;26708;50.304;19.028;2022-08-21T06:19:42;97853.22;;;24.19;77.55
40982;BME280;26708;50.304;19.028;2022-08-21T06:22:43;97861.91;;;24.23;77.29
40982;BME280;26708;50.304;19.028;2022-08-21T06:25:44;97865.25;;;24.26;77.20
40982;BME280;26708;50.304;19.028;2022-08-21T06:28:45;97817.41;;;23.94;77.64
40982;BME280;26708;50.304;19.028;2022-08-21T06:31:49;97883.75;;;24.29;77.51
40982;BME280;26708;50.304;19.028;2022-08-21T06:34:51;97867.34;;;24.21;77.31
40982;BME280;26708;50.304;19.028;2022-08-21T06:37:51;97874.13;;;24.27;77.34
40982;BME280;26708;50.304;19.028;2022-08-21T06:40:52;97876.25;;;24.20;77.32
40982;BME280;26708;50.304;19.028;2022-08-21T06:43:54;97882.69;;;24.16;77.48
40982;BME280;26708;50.304;19.028;2022-08-21T06:46:55;97884.84;;;24.10;75.54
40982;BME280;26708;50.304;19.028;2022-08-21T06:49:57;97890.44;;;23.88;74.46
40982;BME280;26708;50.304;19.028;2022-08-21T06:53:05;97897.47;;;23.73;74.20
40982;BME280;26708;50.304;19.028;2022-08-21T06:56:06;97912.19;;;23.63;73.48
40982;BME280;26708;50.304;19.028;2022-08-21T06:59:07;97906.97;;;23.44;73.58
40982;BME280;26708;50.304;19.028;2022-08-21T07:02:10;97922.44;;;23.36;73.55
40982;BME280;26708;50.304;19.028;2022-08-21T07:05:11;97913.94;;;23.30;73.14
40982;BME280;26708;50.304;19.028;2022-08-21T07:08:14;97880.72;;;23.03;71.21
40982;BME280;26708;50.304;19.028;2022-08-21T07:11:19;97895.19;;;22.97;69.66
40982;BME280;26708;50.304;19.028;2022-08-21T07:14:20;97914.78;;;23.12;69.25
40982;BME280;26708;50.304;19.028;2022-08-21T07:17:21;97896.13;;;22.96;69.13
40982;BME280;26708;50.304;19.028;2022-08-21T07:20:22;97911.66;;;23.04;68.37
40982;BME280;26708;50.304;19.028;2022-08-21T07:23:26;97911.81;;;23.01;68.66
40982;BME280;26708;50.304;19.028;2022-08-21T07:26:28;97911.53;;;23.07;68.40
40982;BME280;26708;50.304;19.028;2022-08-21T07:29:29;97913.31;;;23.06;68.26
40982;BME280;26708;50.304;19.028;2022-08-21T07:32:30;97920.00;;;23.15;68.67
40982;BME280;26708;50.304;19.028;2022-08-21T07:35:30;97923.16;;;23.23;68.91
40982;BME280;26708;50.304;19.028;2022-08-21T07:38:34;97921.03;;;23.29;68.85
40982;BME280;26708;50.304;19.028;2022-08-21T07:41:34;97908.69;;;23.28;68.55
40982;BME280;26708;50.304;19.028;2022-08-21T07:44:35;97917.53;;;23.46;68.58
40982;BME280;26708;50.304;19.028;2022-08-21T07:47:36;97904.13;;;23.47;68.06
40982;BME280;26708;50.304;19.028;2022-08-21T07:50:39;97914.06;;;23.61;67.92
40982;BME280;26708;50.304;19.028;2022-08-21T07:53:42;97909.13;;;23.70;68.01
40982;BME280;26708;50.304;19.028;2022-08-21T07:56:47;97912.66;;;23.88;67.91
40982;BME280;26708;50.304;19.028;2022-08-21T07:59:49;97898.59;;;23.86;67.00
40982;BME280;26708;50.304;19.028;2022-08-21T08:02:52;97890.34;;;23.90;67.02
40982;BME280;26708;50.304;19.028;2022-08-21T08:05:54;97912.97;;;24.14;66.76
40982;BME280;26708;50.304;19.028;2022-08-21T08:08:56;97893.91;;;24.06;65.96
40982;BME280;26708;50.304;19.028;2022-08-21T08:11:56;97887.41;;;24.11;66.49
40982;BME280;26708;50.304;19.028;2022-08-21T08:15:01;97906.91;;;24.27;65.63
40982;BME280;26708;50.304;19.028;2022-08-21T08:18:02;97895.09;;;24.33;66.28
40982;BME280;26708;50.304;19.028;2022-08-21T08:21:04;97895.84;;;24.35;66.05
40982;BME280;26708;50.304;19.028;2022-08-21T08:24:06;97902.31;;;24.46;65.46
40982;BME280;26708;50.304;19.028;2022-08-21T08:27:07;97875.25;;;24.38;65.54
40982;BME280;26708;50.304;19.028;2022-08-21T08:30:11;97901.81;;;24.55;64.70
40982;BME280;26708;50.304;19.028;2022-08-21T08:33:13;97863.81;;;24.36;65.09
40982;BME280;26708;50.304;19.028;2022-08-21T08:36:16;97895.78;;;24.52;64.99
40982;BME280;26708;50.304;19.028;2022-08-21T08:39:18;97783.25;;;23.87;64.62
40982;BME280;26708;50.304;19.028;2022-08-21T08:42:28;97897.69;;;24.65;64.73
40982;BME280;26708;50.304;19.028;2022-08-21T08:45:32;97872.75;;;24.51;64.10
40982;BME280;26708;50.304;19.028;2022-08-21T08:48:51;97906.72;;;24.78;63.83
40982;BME280;26708;50.304;19.028;2022-08-21T08:55:18;97893.31;;;24.80;62.83
40982;BME280;26708;50.304;19.028;2022-08-21T08:58:28;97887.81;;;24.83;63.47
40982;BME280;26708;50.304;19.028;2022-08-21T09:01:30;97871.47;;;24.89;62.67
40982;BME280;26708;50.304;19.028;2022-08-21T09:04:31;97893.22;;;24.97;61.20
40982;BME280;26708;50.304;19.028;2022-08-21T09:07:51;97867.44;;;24.82;61.81
40982;BME280;26708;50.304;19.028;2022-08-21T09:17:38;97894.66;;;25.02;63.04
40982;BME280;26708;50.304;19.028;2022-08-21T09:27:41;97897.53;;;25.13;62.11
40982;BME280;26708;50.304;19.028;2022-08-21T09:30:42;97887.00;;;25.12;61.70
40982;BME280;26708;50.304;19.028;2022-08-21T09:33:43;97889.38;;;25.16;62.29
40982;BME280;26708;50.304;19.028;2022-08-21T09:36:47;97878.66;;;25.02;62.19
40982;BME280;26708;50.304;19.028;2022-08-21T09:39:49;97896.25;;;25.20;62.60
40982;BME280;26708;50.304;19.028;2022-08-21T09:43:10;97881.53;;;25.13;62.27
40982;BME280;26708;50.304;19.028;2022-08-21T09:46:23;97895.41;;;25.20;61.41
40982;BME280;26708;50.304;19.028;2022-08-21T09:49:43;97884.63;;;25.21;61.97
40982;BME280;26708;50.304;19.028;2022-08-21T09:52:48;97894.81;;;25.30;61.91
40982;BME280;26708;50.304;19.028;2022-08-21T09:55:56;97898.16;;;25.34;62.10
40982;BME280;26708;50.304;19.028;2022-08-21T09:59:31;97889.56;;;25.29;62.11
40982;BME280;26708;50.304;19.028;2022-08-21T10:02:34;97889.75;;;25.26;61.97
40982;BME280;26708;50.304;19.028;2022-08-21T10:05:35;97863.97;;;25.11;62.87
40982;BME280;26708;50.304;19.028;2022-08-21T10:08:39;97893.94;;;25.30;62.14
40982;BME280;26708;50.304;19.028;2022-08-21T10:11:46;97897.47;;;25.30;62.05
40982;BME280;26708;50.304;19.028;2022-08-21T10:15:20;97898.50;;;25.28;62.50
40982;BME280;26708;50.304;19.028;2022-08-21T10:18:41;97882.88;;;25.22;62.35
40982;BME280;26708;50.304;19.028;2022-08-21T10:21:59;97890.16;;;25.18;62.34
40982;BME280;26708;50.304;19.028;2022-08-21T10:25:02;97909.84;;;25.31;62.74
40982;BME280;26708;50.304;19.028;2022-08-21T10:28:34;97895.56;;;25.17;62.49
40982;BME280;26708;50.304;19.028;2022-08-21T10:35:18;97914.50;;;25.28;62.28
40982;BME280;26708;50.304;19.028;2022-08-21T10:38:41;97911.47;;;25.34;62.87
40982;BME280;26708;50.304;19.028;2022-08-21T10:48:58;97914.03;;;25.35;63.33
40982;BME280;26708;50.304;19.028;2022-08-21T10:52:15;97918.13;;;25.41;63.99
40982;BME280;26708;50.304;19.028;2022-08-21T10:55:33;97901.31;;;25.40;63.64
40982;BME280;26708;50.304;19.028;2022-08-21T10:58:59;97912.44;;;25.47;63.99
40982;BME280;26708;50.304;19.028;2022-08-21T11:02:17;97910.81;;;25.44;63.19
40982;BME280;26708;50.304;19.028;2022-08-21T11:05:31;97911.38;;;25.35;63.58
40982;BME280;26708;50.304;19.028;2022-08-21T11:08:43;97915.75;;;25.36;63.76
40982;BME280;26708;50.304;19.028;2022-08-21T11:11:55;97922.56;;;25.26;64.24
40982;BME280;26708;50.304;19.028;2022-08-21T11:18:39;97925.34;;;25.09;64.34
40982;BME280;26708;50.304;19.028;2022-08-21T11:21:46;97908.84;;;24.87;64.32
40982;BME280;26708;50.304;19.028;2022-08-21T11:24:57;97933.53;;;24.91;64.51
40982;BME280;26708;50.304;19.028;2022-08-21T11:28:06;97928.44;;;24.86;65.00
40982;BME280;26708;50.304;19.028;2022-08-21T11:31:37;97927.25;;;24.76;65.03
40982;BME280;26708;50.304;19.028;2022-08-21T11:38:40;97928.44;;;24.71;65.54
40982;BME280;26708;50.304;19.028;2022-08-21T11:41:49;97926.28;;;24.62;65.58
40982;BME280;26708;50.304;19.028;2022-08-21T11:49:15;97889.06;;;24.45;66.55
40982;BME280;26708;50.304;19.028;2022-08-21T11:52:49;97924.25;;;24.67;66.37
40982;BME280;26708;50.304;19.028;2022-08-21T11:55:47;97928.88;;;24.63;65.85
40982;BME280;26708;50.304;19.028;2022-08-21T11:59:01;97915.56;;;24.63;65.95
40982;BME280;26708;50.304;19.028;2022-08-21T12:02:09;97913.78;;;24.64;66.25
40982;BME280;26708;50.304;19.028;2022-08-21T12:05:33;97903.19;;;24.62;65.86
40982;BME280;26708;50.304;19.028;2022-08-21T12:08:41;97887.03;;;24.50;65.63
40982;BME280;26708;50.304;19.028;2022-08-21T12:11:50;97900.16;;;24.53;66.07
40982;BME280;26708;50.304;19.028;2022-08-21T12:18:42;97912.03;;;24.63;65.69
40982;BME280;26708;50.304;19.028;2022-08-21T12:22:07;97910.44;;;24.60;65.60
40982;BME280;26708;50.304;19.028;2022-08-21T12:25:17;97892.50;;;24.47;65.28
40982;BME280;26708;50.304;19.028;2022-08-21T12:28:23;97917.63;;;24.58;65.75
40982;BME280;26708;50.304;19.028;2022-08-21T12:31:26;97855.91;;;24.19;66.01
40982;BME280;26708;50.304;19.028;2022-08-21T12:34:37;97913.25;;;24.57;66.06
40982;BME280;26708;50.304;19.028;2022-08-21T12:37:49;97894.56;;;24.42;66.38
40982;BME280;26708;50.304;19.028;2022-08-21T12:41:01;97930.84;;;24.60;66.53
40982;BME280;26708;50.304;19.028;2022-08-21T12:44:09;97908.84;;;24.41;66.45
40982;BME280;26708;50.304;19.028;2022-08-21T12:47:32;97918.09;;;24.34;67.35
40982;BME280;26708;50.304;19.028;2022-08-21T12:50:57;97897.19;;;24.11;68.25
40982;BME280;26708;50.304;19.028;2022-08-21T12:53:59;97914.94;;;24.10;68.62
40982;BME280;26708;50.304;19.028;2022-08-21T12:57:04;97916.16;;;24.05;69.22
40982;BME280;26708;50.304;19.028;2022-08-21T13:00:12;97927.28;;;23.96;69.45
40982;BME280;26708;50.304;19.028;2022-08-21T13:03:14;97925.22;;;23.84;69.50
40982;BME280;26708;50.304;19.028;2022-08-21T13:06:18;97920.31;;;23.77;69.85
40982;BME280;26708;50.304;19.028;2022-08-21T13:09:26;97925.78;;;23.73;70.42
40982;BME280;26708;50.304;19.028;2022-08-21T13:12:28;97937.47;;;23.71;70.21
40982;BME280;26708;50.304;19.028;2022-08-21T13:15:33;97936.81;;;23.66;70.65
40982;BME280;26708;50.304;19.028;2022-08-21T13:18:39;97939.88;;;23.59;71.12
40982;BME280;26708;50.304;19.028;2022-08-21T13:21:52;97932.53;;;23.47;71.13
40982;BME280;26708;50.304;19.028;2022-08-21T13:24:53;97931.53;;;23.49;70.39
40982;BME280;26708;50.304;19.028;2022-08-21T13:28:00;97939.81;;;23.43;70.40
40982;BME280;26708;50.304;19.028;2022-08-21T13:31:07;97932.28;;;23.34;70.76
40982;BME280;26708;50.304;19.028;2022-08-21T13:34:10;97935.78;;;23.18;70.69
40982;BME280;26708;50.304;19.028;2022-08-21T13:37:11;97945.84;;;23.11;70.82
40982;BME280;26708;50.304;19.028;2022-08-21T13:40:16;97949.94;;;23.00;71.50
40982;BME280;26708;50.304;19.028;2022-08-21T13:43:21;97934.69;;;22.86;71.90
40982;BME280;26708;50.304;19.028;2022-08-21T13:46:26;97945.31;;;22.86;71.41
40982;BME280;26708;50.304;19.028;2022-08-21T13:49:34;97942.16;;;22.78;72.02
40982;BME280;26708;50.304;19.028;2022-08-21T13:52:47;97937.16;;;22.72;72.40
40982;BME280;26708;50.304;19.028;2022-08-21T13:55:48;97941.16;;;22.62;72.37
40982;BME280;26708;50.304;19.028;2022-08-21T13:58:49;97959.16;;;22.56;72.58
40982;BME280;26708;50.304;19.028;2022-08-21T14:01:53;97960.47;;;22.47;72.92
40982;BME280;26708;50.304;19.028;2022-08-21T14:05:00;97959.22;;;22.36;73.06
40982;BME280;26708;50.304;19.028;2022-08-21T14:08:13;97959.19;;;22.17;73.47
40982;BME280;26708;50.304;19.028;2022-08-21T14:11:15;97964.31;;;22.02;74.06
40982;BME280;26708;50.304;19.028;2022-08-21T14:14:22;97974.72;;;22.06;74.24
40982;BME280;26708;50.304;19.028;2022-08-21T14:17:38;97960.94;;;21.98;74.32
40982;BME280;26708;50.304;19.028;2022-08-21T14:20:42;97978.19;;;22.08;74.36
40982;BME280;26708;50.304;19.028;2022-08-21T14:23:43;97979.97;;;22.08;74.25
40982;BME280;26708;50.304;19.028;2022-08-21T14:27:07;97981.53;;;22.12;73.65
40982;BME280;26708;50.304;19.028;2022-08-21T14:30:27;97986.25;;;22.05;73.39
40982;BME280;26708;50.304;19.028;2022-08-21T14:33:31;97983.22;;;21.94;73.47
40982;BME280;26708;50.304;19.028;2022-08-21T14:36:32;97973.88;;;21.86;73.59
40982;BME280;26708;50.304;19.028;2022-08-21T14:39:33;97972.41;;;21.79;73.98
40982;BME280;26708;50.304;19.028;2022-08-21T14:42:34;97974.47;;;21.72;74.13
40982;BME280;26708;50.304;19.028;2022-08-21T14:45:35;97967.72;;;21.65;74.13
40982;BME280;26708;50.304;19.028;2022-08-21T14:48:37;97982.63;;;21.68;73.84
40982;BME280;26708;50.304;19.028;2022-08-21T14:51:38;97983.56;;;21.67;73.97
40982;BME280;26708;50.304;19.028;2022-08-21T14:54:41;97993.41;;;21.63;74.05
40982;BME280;26708;50.304;19.028;2022-08-21T14:57:48;97986.63;;;21.56;74.20
40982;BME280;26708;50.304;19.028;2022-08-21T15:00:52;97970.06;;;21.31;74.13
40982;BME280;26708;50.304;19.028;2022-08-21T15:03:54;98000.63;;;21.38;74.58
40982;BME280;26708;50.304;19.028;2022-08-21T15:06:55;97988.78;;;21.27;75.01
40982;BME280;26708;50.304;19.028;2022-08-21T15:09:56;97993.06;;;21.29;75.41
40982;BME280;26708;50.304;19.028;2022-08-21T15:13:06;98003.00;;;21.24;75.51
40982;BME280;26708;50.304;19.028;2022-08-21T15:16:10;97986.44;;;21.19;75.70
40982;BME280;26708;50.304;19.028;2022-08-21T15:19:12;98005.38;;;21.30;75.40
40982;BME280;26708;50.304;19.028;2022-08-21T15:22:12;97994.09;;;21.27;75.67
40982;BME280;26708;50.304;19.028;2022-08-21T15:25:14;98010.31;;;21.39;75.20
40982;BME280;26708;50.304;19.028;2022-08-21T15:28:16;98012.34;;;21.33;75.36
40982;BME280;26708;50.304;19.028;2022-08-21T15:31:17;98015.97;;;21.30;75.24
40982;BME280;26708;50.304;19.028;2022-08-21T15:34:19;98012.72;;;21.24;75.73
40982;BME280;26708;50.304;19.028;2022-08-21T15:37:21;97989.41;;;21.12;76.15
40982;BME280;26708;50.304;19.028;2022-08-21T15:40:23;97992.06;;;21.12;76.03
40982;BME280;26708;50.304;19.028;2022-08-21T15:43:30;98006.63;;;21.22;75.94
40982;BME280;26708;50.304;19.028;2022-08-21T15:46:31;97986.75;;;21.12;76.28
40982;BME280;26708;50.304;19.028;2022-08-21T15:49:32;98003.00;;;21.24;75.77
40982;BME280;26708;50.304;19.028;2022-08-21T15:52:33;98012.03;;;21.19;75.83
40982;BME280;26708;50.304;19.028;2022-08-21T15:55:34;98025.22;;;21.20;75.62
40982;BME280;26708;50.304;19.028;2022-08-21T15:58:35;98023.66;;;21.16;75.53
40982;BME280;26708;50.304;19.028;2022-08-21T16:01:36;98020.31;;;21.11;75.72
40982;BME280;26708;50.304;19.028;2022-08-21T16:04:37;98014.31;;;21.06;75.46
40982;BME280;26708;50.304;19.028;2022-08-21T16:07:39;98022.25;;;21.06;75.46
40982;BME280;26708;50.304;19.028;2022-08-21T16:10:40;98027.88;;;20.99;75.66
40982;BME280;26708;50.304;19.028;2022-08-21T16:13:43;98038.41;;;21.00;75.52
40982;BME280;26708;50.304;19.028;2022-08-21T16:16:44;98040.38;;;20.95;75.46
40982;BME280;26708;50.304;19.028;2022-08-21T16:19:45;98042.28;;;20.92;75.73
40982;BME280;26708;50.304;19.028;2022-08-21T16:22:49;98035.44;;;20.86;75.94
40982;BME280;26708;50.304;19.028;2022-08-21T16:25:50;98038.66;;;20.94;76.25
40982;BME280;26708;50.304;19.028;2022-08-21T16:28:54;98025.66;;;20.88;76.36
40982;BME280;26708;50.304;19.028;2022-08-21T16:31:57;98035.63;;;21.03;76.40
40982;BME280;26708;50.304;19.028;2022-08-21T16:34:59;98034.16;;;20.96;76.21
40982;BME280;26708;50.304;19.028;2022-08-21T16:37:59;98035.88;;;20.97;76.48
40982;BME280;26708;50.304;19.028;2022-08-21T16:41:01;98031.72;;;20.90;76.14
40982;BME280;26708;50.304;19.028;2022-08-21T16:44:03;98000.09;;;20.64;76.43
40982;BME280;26708;50.304;19.028;2022-08-21T16:47:05;98037.25;;;20.84;76.99